< < Back
Terminal Aerodrome Forecast


Current Version              Previous Versions:   1  2  3  4  5  6  7  8  9  

Terminal Aerodrome Forecast

622
FTUS42 KTAE 011100
TAFABY
TAF
KABY 011133Z 0112/0212 08004KT P6SM BKN250
     FM011400 15012G18KT P6SM BKN050
     FM012200 18012G18KT P6SM SCT025 OVC050
     FM020300 20015KT 4SM -RA BR OVC015
     FM020600 20013KT 2SM -RA BR OVC007=

Latest METAR

591
SAUS70 KWBC 012200 RRO
MTRABY
METAR KABY 012153Z 19007KT 7SM RA FEW060 SCT080 OVC100 17/12 A3005 RMK
AO2 RAB31 SLP174 P0001 T01670117


USA.gov is the U.S. government's official web portal to all federal, state and local government web resources and services.